createdAt,value
2023-05-22T00:01:56.105Z,5.05
2023-05-22T00:04:23.050Z,4.70
2023-05-22T00:06:50.187Z,4.80
2023-05-22T00:09:17.134Z,4.60
2023-05-22T00:11:44.086Z,4.97
2023-05-22T00:14:13.425Z,4.18
2023-05-22T00:16:41.213Z,4.78
2023-05-22T00:19:13.726Z,4.82
2023-05-22T00:21:40.700Z,4.53
2023-05-22T00:24:08.057Z,4.90
2023-05-22T00:26:34.991Z,5.25
2023-05-22T00:29:01.886Z,4.88
2023-05-22T00:31:28.718Z,5.32
2023-05-22T00:33:55.642Z,4.90
2023-05-22T00:36:22.484Z,5.60
2023-05-22T00:38:49.435Z,5.35
2023-05-22T00:41:16.370Z,5.38
2023-05-22T00:43:45.144Z,5.22
2023-05-22T00:46:12.746Z,5.93
2023-05-22T00:48:39.909Z,5.90
2023-05-22T00:51:08.271Z,5.78
2023-05-22T00:53:35.744Z,5.95
2023-05-22T00:56:03.613Z,6.47
2023-05-22T00:58:30.654Z,5.90
2023-05-22T01:00:57.618Z,6.72
2023-05-22T01:03:26.886Z,5.75
2023-05-22T01:05:55.703Z,6.10
2023-05-22T01:08:23.017Z,5.72
2023-05-22T01:11:01.015Z,6.10
2023-05-22T01:13:40.783Z,6.10
2023-05-22T01:16:18.903Z,5.80
2023-05-22T01:18:49.505Z,6.30
2023-05-22T01:21:24.256Z,6.55
2023-05-22T01:24:31.729Z,6.18
2023-05-22T01:27:35.143Z,6.75
2023-05-22T01:30:13.932Z,6.88
2023-05-22T01:32:42.549Z,5.90
2023-05-22T01:35:11.824Z,5.43
2023-05-22T01:37:39.174Z,5.90
2023-05-22T01:40:07.778Z,5.53
2023-05-22T01:42:35.392Z,6.15
2023-05-22T01:45:02.417Z,5.65
2023-05-22T01:47:29.317Z,5.85
2023-05-22T01:49:56.269Z,5.88
2023-05-22T01:52:41.773Z,6.60
2023-05-22T01:55:17.518Z,6.13
2023-05-22T01:57:54.902Z,6.22
2023-05-22T02:00:24.117Z,6.03
2023-05-22T02:03:15.087Z,6.45
2023-05-22T02:05:44.008Z,6.43
2023-05-22T02:08:11.889Z,6.90
2023-05-22T02:10:40.826Z,6.50
2023-05-22T02:13:08.133Z,6.28
2023-05-22T02:15:35.364Z,6.38
2023-05-22T02:18:03.149Z,7.35
2023-05-22T02:20:30.066Z,6.80
2023-05-22T02:22:56.945Z,6.45
2023-05-22T02:25:23.784Z,6.45
2023-05-22T02:27:50.745Z,6.50
2023-05-22T02:30:17.656Z,6.85
2023-05-22T02:32:44.572Z,6.55
2023-05-22T02:35:11.517Z,6.70
2023-05-22T02:37:38.526Z,6.28
2023-05-22T02:40:10.085Z,6.35
2023-05-22T02:42:36.973Z,6.60
2023-05-22T02:45:04.175Z,6.35
2023-05-22T02:47:31.111Z,6.45
2023-05-22T02:49:58.379Z,6.43
2023-05-22T02:52:25.365Z,6.20
2023-05-22T02:54:52.225Z,6.10
2023-05-22T02:57:19.209Z,6.38
2023-05-22T02:59:46.248Z,6.18
2023-05-22T03:02:13.886Z,6.35
2023-05-22T03:04:40.957Z,6.80
2023-05-22T03:07:08.067Z,5.90
2023-05-22T03:09:34.970Z,6.18
2023-05-22T03:12:01.759Z,6.82
2023-05-22T03:14:29.270Z,7.10
2023-05-22T03:16:56.727Z,6.45
2023-05-22T03:19:24.018Z,6.22
2023-05-22T03:21:51.018Z,6.18
2023-05-22T03:24:18.055Z,5.80
2023-05-22T03:26:45.028Z,5.57
2023-05-22T03:29:11.899Z,6.00
2023-05-22T03:31:38.684Z,6.20
2023-05-22T03:34:06.125Z,5.93
2023-05-22T03:36:36.210Z,5.53
2023-05-22T03:39:04.239Z,6.00
2023-05-22T03:41:31.298Z,5.85
2023-05-22T03:43:58.401Z,6.28
2023-05-22T03:46:25.719Z,6.05
2023-05-22T03:48:52.685Z,6.53
2023-05-22T03:51:20.415Z,6.20
2023-05-22T03:53:47.500Z,6.07
2023-05-22T03:56:14.380Z,6.32
2023-05-22T03:58:41.332Z,6.45
2023-05-22T04:01:10.005Z,6.15
2023-05-22T04:03:37.856Z,5.60
2023-05-22T04:06:05.870Z,6.00
2023-05-22T04:08:32.912Z,6.35
2023-05-22T04:10:59.864Z,5.50
2023-05-22T04:13:27.440Z,5.40
2023-05-22T04:15:54.546Z,5.50
2023-05-22T04:18:21.412Z,5.38
2023-05-22T04:20:48.466Z,5.75
2023-05-22T04:23:15.274Z,4.45
2023-05-22T04:25:42.175Z,5.30
2023-05-22T04:28:09.391Z,5.30
2023-05-22T04:30:40.495Z,5.55
2023-05-22T04:33:08.510Z,5.40
2023-05-22T04:35:35.466Z,4.78
2023-05-22T04:38:02.396Z,4.85
2023-05-22T04:40:30.451Z,5.30
2023-05-22T04:42:59.984Z,4.78
2023-05-22T04:45:28.729Z,4.75
2023-05-22T04:47:56.342Z,5.07
2023-05-22T04:50:24.223Z,4.63
2023-05-22T04:52:51.361Z,4.97
2023-05-22T04:55:19.454Z,4.60
2023-05-22T04:57:47.266Z,4.55
2023-05-22T05:00:16.893Z,4.22
2023-05-22T05:02:43.897Z,3.78
2023-05-22T05:05:10.813Z,3.78
2023-05-22T05:07:40.058Z,4.15
2023-05-22T05:10:07.640Z,3.90
2023-05-22T05:12:34.692Z,3.88
2023-05-22T05:15:02.056Z,3.70
2023-05-22T05:17:29.068Z,4.25
2023-05-22T05:19:56.009Z,3.90
2023-05-22T05:22:23.079Z,3.10
2023-05-22T05:24:49.987Z,3.75
2023-05-22T05:27:16.993Z,3.75
2023-05-22T05:29:43.921Z,4.03
2023-05-22T05:32:12.502Z,3.70
2023-05-22T05:34:39.597Z,3.72
2023-05-22T05:37:06.454Z,4.00
2023-05-22T05:39:33.388Z,4.00
2023-05-22T05:42:00.559Z,3.83
2023-05-22T05:44:27.472Z,3.85
2023-05-22T05:46:54.836Z,4.07
2023-05-22T05:49:22.329Z,3.13
2023-05-22T05:51:49.183Z,3.45
2023-05-22T05:54:16.091Z,3.50
2023-05-22T05:56:43.159Z,4.25
2023-05-22T05:59:10.075Z,3.22
2023-05-22T06:01:38.727Z,3.33
2023-05-22T06:04:05.839Z,3.10
2023-05-22T06:06:36.332Z,3.50
2023-05-22T06:09:06.336Z,3.50
2023-05-22T06:11:34.228Z,2.97
2023-05-22T06:14:05.044Z,3.67
2023-05-22T06:16:32.066Z,3.08
2023-05-22T06:18:59.895Z,3.30
2023-05-22T06:21:27.046Z,3.22
2023-05-22T06:23:53.958Z,3.22
2023-05-22T06:26:22.230Z,2.50
2023-05-22T06:28:49.133Z,2.85
2023-05-22T06:31:15.967Z,2.53
2023-05-22T06:33:43.512Z,2.67
2023-05-22T06:36:11.685Z,2.78
2023-05-22T06:38:39.266Z,2.22
2023-05-22T06:41:06.554Z,2.28
2023-05-22T06:43:33.733Z,2.40
2023-05-22T06:46:00.887Z,2.40
2023-05-22T06:48:27.841Z,2.35
2023-05-22T06:50:54.896Z,2.90
2023-05-22T06:53:23.909Z,2.63
2023-05-22T06:55:51.129Z,2.45
2023-05-22T06:58:18.108Z,2.63
2023-05-22T07:00:45.020Z,2.63
2023-05-22T07:03:12.078Z,2.90
2023-05-22T07:05:39.119Z,2.85
2023-05-22T07:08:06.344Z,2.60
2023-05-22T07:10:33.194Z,2.50
2023-05-22T07:13:00.120Z,2.72
2023-05-22T07:15:27.012Z,2.45
2023-05-22T07:17:54.004Z,2.60
2023-05-22T07:20:21.309Z,2.40
2023-05-22T07:22:48.221Z,2.40
2023-05-22T07:25:15.132Z,2.53
2023-05-22T07:27:41.941Z,2.00
2023-05-22T07:30:09.329Z,1.80
2023-05-22T07:32:36.229Z,2.20
2023-05-22T07:35:03.500Z,2.10
2023-05-22T07:37:31.750Z,1.92
2023-05-22T07:39:58.686Z,1.90
2023-05-22T07:42:26.159Z,2.67
2023-05-22T07:44:53.089Z,1.50
2023-05-22T07:47:19.929Z,2.08
2023-05-22T07:49:46.797Z,1.65
2023-05-22T07:52:13.677Z,1.95
2023-05-22T07:54:41.578Z,1.60
2023-05-22T07:57:09.294Z,1.80
2023-05-22T07:59:37.791Z,1.65
2023-05-22T08:02:05.732Z,1.60
2023-05-22T08:04:32.698Z,2.00
2023-05-22T08:06:59.535Z,1.67
2023-05-22T08:09:26.513Z,2.08
2023-05-22T08:11:53.442Z,1.92
2023-05-22T08:14:22.153Z,1.80
2023-05-22T08:16:49.279Z,1.42
2023-05-22T08:19:16.292Z,1.65
2023-05-22T08:21:43.324Z,1.40
2023-05-22T08:24:10.527Z,1.40
2023-05-22T08:26:37.517Z,1.80
2023-05-22T08:29:04.457Z,1.98
2023-05-22T08:31:31.401Z,1.48
2023-05-22T08:34:02.616Z,1.42
2023-05-22T08:36:33.979Z,1.70
2023-05-22T08:39:01.553Z,1.27
2023-05-22T08:41:29.327Z,1.83
2023-05-22T08:43:56.395Z,1.52
2023-05-22T08:46:28.348Z,1.48
2023-05-22T08:48:57.533Z,1.98
2023-05-22T08:51:28.570Z,1.55
2023-05-22T08:53:59.496Z,1.63
2023-05-22T08:56:28.640Z,1.48
2023-05-22T08:58:58.264Z,1.48
2023-05-22T09:01:25.508Z,1.58
2023-05-22T09:03:52.455Z,1.90
2023-05-22T09:06:19.285Z,2.20
2023-05-22T09:08:46.190Z,2.03
2023-05-22T09:11:13.314Z,1.77
2023-05-22T09:13:41.536Z,2.17
2023-05-22T09:16:13.225Z,1.80
2023-05-22T09:18:42.130Z,1.70
2023-05-22T09:21:25.849Z,1.63
2023-05-22T09:24:01.235Z,1.80
2023-05-22T09:26:29.373Z,2.38
2023-05-22T09:28:57.271Z,1.70
2023-05-22T09:31:24.358Z,1.52
2023-05-22T09:33:51.206Z,1.75
2023-05-22T09:36:18.161Z,1.92
2023-05-22T09:38:45.478Z,2.13
2023-05-22T09:41:12.296Z,1.70
2023-05-22T09:43:39.176Z,1.90
2023-05-22T09:46:06.069Z,1.60
2023-05-22T09:48:38.976Z,1.70
2023-05-22T09:51:07.552Z,2.08
2023-05-22T09:53:35.282Z,2.05
2023-05-22T09:56:05.252Z,1.88
2023-05-22T09:58:35.791Z,2.10
2023-05-22T10:01:04.127Z,2.53
2023-05-22T10:03:32.655Z,2.10
2023-05-22T10:06:01.286Z,2.72
2023-05-22T10:08:29.281Z,2.35
2023-05-22T10:10:56.289Z,1.90
2023-05-22T10:13:25.184Z,1.35
2023-05-22T10:15:52.206Z,2.08
2023-05-22T10:18:19.254Z,1.42
2023-05-22T10:20:49.038Z,1.42
2023-05-22T10:23:16.726Z,1.60
2023-05-22T10:25:44.625Z,1.90
2023-05-22T10:28:14.374Z,1.33
2023-05-22T10:30:44.642Z,1.70
2023-05-22T10:33:18.165Z,1.20
2023-05-22T10:35:52.385Z,1.40
2023-05-22T10:38:45.887Z,1.60
2023-05-22T10:41:13.881Z,1.60
2023-05-22T10:43:45.092Z,1.77
2023-05-22T10:46:13.293Z,1.63
2023-05-22T10:48:41.778Z,1.90
2023-05-22T10:51:09.075Z,1.42
2023-05-22T10:53:36.902Z,1.45
2023-05-22T10:56:11.239Z,1.48
2023-05-22T10:58:38.852Z,1.27
2023-05-22T11:01:14.659Z,1.88
2023-05-22T11:04:06.951Z,1.73
2023-05-22T11:07:02.942Z,1.50
2023-05-22T11:09:34.084Z,1.58
2023-05-22T11:12:21.451Z,1.50
2023-05-22T11:14:58.805Z,1.23
2023-05-22T11:17:30.819Z,1.95
2023-05-22T11:20:18.693Z,1.40
2023-05-22T11:22:52.199Z,1.38
2023-05-22T11:25:20.280Z,1.60
2023-05-22T11:27:48.243Z,1.60
2023-05-22T11:30:16.447Z,1.52
2023-05-22T11:32:46.015Z,1.67
2023-05-22T11:35:20.151Z,1.80
2023-05-22T11:37:48.465Z,1.60
2023-05-22T11:40:17.227Z,1.65
2023-05-22T11:42:44.860Z,2.05
2023-05-22T11:45:11.964Z,1.50
2023-05-22T11:47:39.302Z,1.70
2023-05-22T11:50:09.408Z,1.38
2023-05-22T11:52:37.641Z,1.80
2023-05-22T11:55:08.393Z,1.40
2023-05-22T11:57:36.170Z,2.00
2023-05-22T12:00:06.509Z,1.45
2023-05-22T12:02:33.891Z,2.45
2023-05-22T12:05:00.861Z,1.50
2023-05-22T12:07:28.265Z,1.42
2023-05-22T12:09:58.701Z,1.83
2023-05-22T12:12:26.066Z,1.35
2023-05-22T12:14:53.380Z,1.58
2023-05-22T12:17:20.307Z,1.60
2023-05-22T12:19:48.329Z,1.88
2023-05-22T12:22:15.680Z,1.70
2023-05-22T12:24:46.321Z,1.35
2023-05-22T12:27:14.418Z,1.77
2023-05-22T12:29:42.190Z,1.52
2023-05-22T12:32:11.177Z,1.77
2023-05-22T12:34:45.770Z,1.50
2023-05-22T12:37:25.096Z,1.03
2023-05-22T12:39:59.958Z,1.70
2023-05-22T12:42:28.132Z,2.30
2023-05-22T12:44:56.533Z,1.40
2023-05-22T12:47:25.017Z,1.80
2023-05-22T12:49:52.141Z,1.50
2023-05-22T12:52:19.294Z,1.20
2023-05-22T12:54:46.435Z,1.83
2023-05-22T12:57:13.357Z,1.20
2023-05-22T12:59:41.247Z,1.30
2023-05-22T13:02:08.388Z,1.02
2023-05-22T13:04:35.413Z,1.38
2023-05-22T13:07:02.248Z,1.38
2023-05-22T13:09:29.079Z,1.58
2023-05-22T13:11:56.571Z,1.40
2023-05-22T13:14:23.481Z,2.72
2023-05-22T13:16:50.658Z,1.50
2023-05-22T13:19:17.856Z,1.70
2023-05-22T13:21:44.773Z,1.70
2023-05-22T13:24:11.634Z,1.33
2023-05-22T13:26:38.508Z,1.48
2023-05-22T13:29:05.329Z,1.90
2023-05-22T13:31:37.667Z,1.30
2023-05-22T13:34:05.239Z,1.48
2023-05-22T13:36:32.710Z,2.30
2023-05-22T13:38:59.663Z,2.05
2023-05-22T13:41:26.597Z,1.65
2023-05-22T13:43:53.636Z,1.88
2023-05-22T13:46:22.243Z,1.55
2023-05-22T13:48:49.381Z,2.00
2023-05-22T13:51:16.424Z,1.67
2023-05-22T13:53:43.270Z,1.48
2023-05-22T13:56:10.098Z,1.95
2023-05-22T13:58:37.062Z,2.22
2023-05-22T14:01:03.937Z,1.90
2023-05-22T14:03:30.910Z,2.25
2023-05-22T14:05:57.880Z,1.98
2023-05-22T14:08:25.058Z,1.85
2023-05-22T14:10:52.056Z,1.42
2023-05-22T14:13:19.159Z,1.70
2023-05-22T14:15:49.154Z,1.52
2023-05-22T14:18:16.613Z,1.50
2023-05-22T14:20:44.488Z,1.75
2023-05-22T14:23:12.623Z,1.80
2023-05-22T14:25:45.662Z,1.58
2023-05-22T14:28:13.914Z,1.75
2023-05-22T14:30:41.208Z,1.50
2023-05-22T14:33:08.557Z,1.70
2023-05-22T14:35:35.392Z,1.75
2023-05-22T14:38:02.381Z,2.05
2023-05-22T14:40:29.280Z,1.60
2023-05-22T14:42:56.344Z,1.42
2023-05-22T14:45:23.625Z,1.80
2023-05-22T14:47:50.721Z,1.50
2023-05-22T14:50:20.387Z,1.52
2023-05-22T14:52:51.322Z,1.65
2023-05-22T14:55:18.414Z,1.63
2023-05-22T14:57:45.505Z,1.75
2023-05-22T15:00:13.123Z,1.58
2023-05-22T15:02:40.497Z,1.83
2023-05-22T15:05:07.978Z,1.50
2023-05-22T15:07:43.962Z,1.60
2023-05-22T15:10:13.006Z,1.90
2023-05-22T15:12:39.915Z,2.08
2023-05-22T15:15:07.275Z,2.05
2023-05-22T15:17:34.228Z,1.70
2023-05-22T15:20:01.362Z,1.83
2023-05-22T15:22:28.179Z,1.80
2023-05-22T15:25:15.315Z,1.60
2023-05-22T15:27:42.516Z,2.20
2023-05-22T15:30:09.994Z,2.45
2023-05-22T15:32:38.147Z,2.55
2023-05-22T15:35:06.387Z,2.00
2023-05-22T15:37:36.701Z,2.40
2023-05-22T15:40:04.518Z,2.13
2023-05-22T15:42:31.637Z,2.55
2023-05-22T15:44:59.909Z,2.20
2023-05-22T15:47:26.753Z,2.90
2023-05-22T15:49:53.699Z,2.08
2023-05-22T15:52:22.580Z,2.13
2023-05-22T15:54:49.458Z,1.92
2023-05-22T15:57:16.732Z,2.10
2023-05-22T15:59:43.719Z,1.98
2023-05-22T16:02:10.557Z,2.15
2023-05-22T16:04:37.457Z,1.80
2023-05-22T16:07:04.437Z,1.95
2023-05-22T16:09:32.779Z,2.22
2023-05-22T16:11:59.867Z,3.58
2023-05-22T16:14:26.758Z,2.10
2023-05-22T16:16:53.744Z,2.17
2023-05-22T16:19:20.725Z,2.97
2023-05-22T16:21:47.630Z,2.15
2023-05-22T16:24:14.526Z,2.35
2023-05-22T16:26:41.471Z,2.10
2023-05-22T16:29:09.005Z,2.33
2023-05-22T16:31:36.003Z,2.40
2023-05-22T16:34:03.550Z,2.72
2023-05-22T16:36:30.972Z,2.50
2023-05-22T16:38:57.948Z,2.42
2023-05-22T16:41:24.890Z,2.33
2023-05-22T16:43:51.785Z,2.70
2023-05-22T16:46:18.694Z,2.08
2023-05-22T16:48:45.578Z,2.10
2023-05-22T16:51:12.501Z,2.60
2023-05-22T16:53:41.886Z,2.60
2023-05-22T16:56:08.869Z,2.60
2023-05-22T16:58:35.988Z,2.33
2023-05-22T17:01:03.050Z,2.15
2023-05-22T17:03:30.068Z,2.58
2023-05-22T17:05:57.072Z,2.85
2023-05-22T17:08:23.957Z,2.60
2023-05-22T17:10:51.038Z,2.47
2023-05-22T17:13:20.907Z,2.40
2023-05-22T17:15:51.530Z,2.45
2023-05-22T17:18:19.918Z,2.47
2023-05-22T17:20:50.841Z,2.85
2023-05-22T17:23:18.010Z,2.33
2023-05-22T17:25:46.685Z,2.38
2023-05-22T17:31:19.030Z,3.28
2023-05-22T17:33:54.624Z,2.75
2023-05-22T17:39:09.698Z,2.50
2023-05-22T17:42:23.548Z,2.40
2023-05-22T17:44:50.424Z,2.80
2023-05-22T17:47:32.348Z,2.72
2023-05-22T17:50:14.213Z,3.13
2023-05-22T17:52:54.539Z,2.75
2023-05-22T17:55:24.243Z,3.00
2023-05-22T17:57:51.323Z,3.03
2023-05-22T18:00:18.500Z,2.72
2023-05-22T18:02:45.630Z,2.88
2023-05-22T18:05:12.567Z,2.90
2023-05-22T18:07:39.578Z,2.95
2023-05-22T18:10:07.067Z,4.05
2023-05-22T18:12:35.354Z,4.00
2023-05-22T18:15:04.752Z,3.22
2023-05-22T18:17:32.633Z,3.10
2023-05-22T18:19:59.580Z,3.00
2023-05-22T18:22:26.394Z,2.97
2023-05-22T18:24:53.234Z,2.55
2023-05-22T18:27:20.094Z,2.80
2023-05-22T18:29:46.960Z,2.90
2023-05-22T18:32:13.911Z,3.30
2023-05-22T18:34:41.052Z,3.38
2023-05-22T18:37:07.974Z,3.30
2023-05-22T18:39:34.888Z,3.40
2023-05-22T18:42:01.719Z,3.40
2023-05-22T18:44:28.566Z,3.45
2023-05-22T18:46:55.448Z,3.58
2023-05-22T18:49:22.340Z,2.85
2023-05-22T18:51:49.400Z,3.50
2023-05-22T18:54:16.255Z,3.78
2023-05-22T18:56:43.109Z,3.55
2023-05-22T18:59:09.978Z,3.30
2023-05-22T19:01:36.896Z,3.70
2023-05-22T19:04:05.733Z,3.50
2023-05-22T19:06:32.652Z,3.58
2023-05-22T19:08:59.936Z,3.20
2023-05-22T19:11:27.397Z,3.38
2023-05-22T19:13:54.898Z,3.70
2023-05-22T19:16:21.820Z,3.28
2023-05-22T19:18:48.709Z,3.08
2023-05-22T19:21:15.636Z,3.70
2023-05-22T19:23:42.926Z,4.00
2023-05-22T19:26:09.761Z,3.95
2023-05-22T19:28:36.582Z,3.72
2023-05-22T19:31:03.702Z,4.00
2023-05-22T19:33:33.759Z,4.00
2023-05-22T19:36:01.953Z,3.97
2023-05-22T19:38:28.899Z,4.20
2023-05-22T19:40:55.760Z,5.18
2023-05-22T19:43:22.788Z,4.80
2023-05-22T19:45:49.616Z,5.32
2023-05-22T19:48:16.612Z,4.65
2023-05-22T19:50:43.690Z,6.10
2023-05-22T19:53:10.657Z,5.10
2023-05-22T19:55:37.570Z,5.43
2023-05-22T19:58:04.450Z,5.45
2023-05-22T20:00:31.910Z,5.75
2023-05-22T20:02:58.914Z,6.50
2023-05-22T20:05:26.073Z,5.53
2023-05-22T20:07:52.911Z,6.45
2023-05-22T20:10:20.191Z,6.28
2023-05-22T20:12:47.170Z,6.55
2023-05-22T20:15:15.122Z,6.95
2023-05-22T20:17:42.660Z,7.35
2023-05-22T20:20:09.998Z,6.25
2023-05-22T20:22:36.863Z,7.10
2023-05-22T20:25:05.286Z,6.78
2023-05-22T20:27:32.176Z,9.25
2023-05-22T20:30:00.269Z,7.97
2023-05-22T20:32:27.479Z,7.07
2023-05-22T20:34:55.355Z,7.18
2023-05-22T20:37:23.055Z,7.30
2023-05-22T20:39:50.324Z,7.20
2023-05-22T20:42:18.072Z,7.35
2023-05-22T20:44:44.961Z,7.15
2023-05-22T20:47:11.952Z,6.68
2023-05-22T20:49:38.922Z,7.10
2023-05-22T20:52:05.889Z,7.43
2023-05-22T20:54:34.088Z,7.40
2023-05-22T20:57:01.581Z,7.32
2023-05-22T20:59:29.028Z,6.40
2023-05-22T21:01:57.078Z,7.07
2023-05-22T21:04:24.637Z,6.90
2023-05-22T21:06:51.552Z,6.30
2023-05-22T21:09:18.489Z,6.45
2023-05-22T21:11:45.441Z,7.07
2023-05-22T21:14:12.348Z,6.38
2023-05-22T21:16:40.141Z,6.32
2023-05-22T21:19:07.461Z,6.50
2023-05-22T21:21:36.301Z,5.82
2023-05-22T21:24:03.387Z,6.05
2023-05-22T21:26:30.380Z,6.30
2023-05-22T21:28:57.383Z,5.75
2023-05-22T21:31:24.266Z,5.97
2023-05-22T21:33:51.242Z,5.15
2023-05-22T21:36:18.073Z,5.53
2023-05-22T21:38:45.705Z,4.70
2023-05-22T21:41:13.368Z,5.00
2023-05-22T21:43:40.301Z,5.43
2023-05-22T21:46:07.284Z,4.72
2023-05-22T21:48:34.449Z,4.80
2023-05-22T21:51:01.259Z,5.28
2023-05-22T21:53:28.092Z,4.82
2023-05-22T21:55:54.912Z,4.93
2023-05-22T21:58:21.859Z,5.38
2023-05-22T22:00:48.716Z,5.10
2023-05-22T22:03:15.852Z,5.15
2023-05-22T22:05:42.812Z,5.47
2023-05-22T22:08:09.689Z,4.53
2023-05-22T22:10:36.874Z,4.70
2023-05-22T22:13:03.816Z,4.75
2023-05-22T22:15:32.112Z,4.80
2023-05-22T22:18:02.179Z,4.68
2023-05-22T22:20:43.675Z,4.40
2023-05-22T22:23:12.239Z,4.63
2023-05-22T22:25:39.355Z,4.63
2023-05-22T22:28:07.321Z,4.57
2023-05-22T22:30:35.252Z,4.47
2023-05-22T22:33:02.567Z,4.25
2023-05-22T22:35:29.624Z,4.63
2023-05-22T22:37:56.776Z,4.40
2023-05-22T22:40:24.810Z,4.47
2023-05-22T22:42:53.480Z,4.20
2023-05-22T22:45:20.700Z,3.85
2023-05-22T22:47:48.297Z,4.65
2023-05-22T22:50:15.206Z,3.88
2023-05-22T22:52:45.695Z,4.22
2023-05-22T22:55:13.490Z,3.55
2023-05-22T22:57:43.370Z,3.72
2023-05-22T23:00:13.220Z,3.80
2023-05-22T23:02:40.609Z,3.78
2023-05-22T23:05:08.159Z,3.97
2023-05-22T23:07:35.096Z,3.83
2023-05-22T23:10:01.928Z,3.58
2023-05-22T23:12:28.831Z,3.80
2023-05-22T23:14:55.777Z,3.58
2023-05-22T23:17:22.593Z,3.72
2023-05-22T23:19:49.581Z,3.58
2023-05-22T23:22:16.440Z,3.63
2023-05-22T23:24:43.256Z,3.72
2023-05-22T23:27:10.141Z,3.60
2023-05-22T23:29:36.936Z,3.60
2023-05-22T23:32:03.858Z,3.35
2023-05-22T23:34:30.704Z,3.38
2023-05-22T23:36:57.530Z,3.55
2023-05-22T23:39:24.343Z,3.65
2023-05-22T23:41:54.061Z,3.42
2023-05-22T23:44:21.759Z,3.58
2023-05-22T23:46:50.084Z,3.38
2023-05-22T23:49:16.935Z,3.28
2023-05-22T23:51:43.867Z,3.50
2023-05-22T23:54:11.306Z,3.50
2023-05-22T23:56:38.162Z,3.20
2023-05-22T23:59:05.092Z,3.40
